Time;durP1;ratioP1;P1;durP2;ratioP2;P2;SDS_P1;SDS_P2;PMS_P1;PMS_P2;Temp;Humidity;BMP_temperature;BMP_pressure;BME280_temperature;BME280_humidity;BME280_pressure;Samples;Min_cycle;Max_cycle;Signal;HPM_P1;HPM_P2
2019/07/24 00:02:08;;;;;;;6.7;3.7;;;;;;;24.31;49.8125;1002.16;;;;
2019/07/24 00:04:33;;;;;;;5.8;3.9;;;;;;;24.28;50.27051;1002.146;;;;
2019/07/24 00:06:58;;;;;;;5.2;3.8;;;;;;;24.23;50.11035;1002.142;;;;
2019/07/24 00:09:25;;;;;;;5.2;3.7;;;;;;;24.19;49.96484;1002.134;;;;
2019/07/24 00:11:48;;;;;;;6;3.7;;;;;;;24.16;50.25586;1002.105;;;;
2019/07/24 00:14:13;;;;;;;5.4;3.7;;;;;;;24.1;50.36816;1002.129;;;;
2019/07/24 00:16:38;;;;;;;4.6;3.8;;;;;;;24.08;50.35449;1002.169;;;;
2019/07/24 00:19:03;;;;;;;5.7;3.6;;;;;;;24.1;50.19141;1002.151;;;;
2019/07/24 00:21:28;;;;;;;5.9;3.9;;;;;;;24.11;50.07422;1002.156;;;;
2019/07/24 00:23:54;;;;;;;4;3.5;;;;;;;24.17;49.57324;1002.107;;;;
2019/07/24 00:26:19;;;;;;;5.2;3.7;;;;;;;24.16;49.71387;1002.123;;;;
2019/07/24 00:28:44;;;;;;;4.8;3.9;;;;;;;24.17;49.69141;1002.168;;;;
2019/07/24 00:31:09;;;;;;;4.8;3.7;;;;;;;24.19;49.46875;1002.132;;;;
2019/07/24 00:33:34;;;;;;;5.9;3.7;;;;;;;24.17;49.36035;1002.134;;;;
2019/07/24 00:35:59;;;;;;;4.4;3.5;;;;;;;24.27;49.09961;1002.111;;;;
2019/07/24 00:38:24;;;;;;;6;3.6;;;;;;;24.33;48.83496;1002.131;;;;
2019/07/24 00:40:49;;;;;;;3.9;3.4;;;;;;;24.29;48.80664;1002.097;;;;
2019/07/24 00:43:14;;;;;;;5.6;3.7;;;;;;;24.31;48.78516;1002.15;;;;
2019/07/24 00:45:39;;;;;;;8.5;3.9;;;;;;;24.31;48.9502;1002.099;;;;
2019/07/24 00:48:04;;;;;;;4.9;3.6;;;;;;;24.29;48.9834;1002.072;;;;
2019/07/24 00:50:30;;;;;;;5.9;3.8;;;;;;;24.24;49.25;1002.075;;;;
2019/07/24 00:52:55;;;;;;;5.4;3.9;;;;;;;24.24;49.20215;1002.047;;;;
2019/07/24 00:55:20;;;;;;;4.2;3.4;;;;;;;24.09;49.58789;1002.027;;;;
2019/07/24 00:57:45;;;;;;;6.8;3.5;;;;;;;24.05;49.93652;1002.061;;;;
2019/07/24 01:00:10;;;;;;;4.9;3.7;;;;;;;24.03;49.93457;1002.03;;;;
2019/07/24 01:02:35;;;;;;;5.2;3.7;;;;;;;24;49.91992;1002.017;;;;
2019/07/24 01:05:00;;;;;;;5.8;3.8;;;;;;;24.04;49.96094;1002;;;;
2019/07/24 01:07:25;;;;;;;7.5;3.7;;;;;;;23.97;50.22266;1001.955;;;;
2019/07/24 01:09:50;;;;;;;7.6;3.8;;;;;;;23.95;50.25586;1001.983;;;;
2019/07/24 01:12:15;;;;;;;4.9;3.7;;;;;;;23.92;50.28906;1001.993;;;;
2019/07/24 01:14:40;;;;;;;7;3.9;;;;;;;23.88;50.46191;1001.971;;;;
2019/07/24 01:17:05;;;;;;;4.7;3.7;;;;;;;23.93;50.39453;1001.929;;;;
2019/07/24 01:19:31;;;;;;;5;3.9;;;;;;;23.89;50.37988;1001.857;;;;
2019/07/24 01:21:55;;;;;;;6.6;3.6;;;;;;;23.87;50.41309;1001.821;;;;
2019/07/24 01:24:21;;;;;;;4.9;3.7;;;;;;;23.83;50.51465;1001.811;;;;
2019/07/24 01:26:46;;;;;;;5.3;3.9;;;;;;;23.77;50.66113;1001.81;;;;
2019/07/24 01:29:11;;;;;;;6.1;4.1;;;;;;;23.78;50.50879;1001.844;;;;
2019/07/24 01:31:36;;;;;;;6;3.7;;;;;;;23.85;50.15039;1001.804;;;;
2019/07/24 01:34:02;;;;;;;5.8;3.6;;;;;;;23.81;50.35938;1001.797;;;;
2019/07/24 01:36:27;;;;;;;6.8;3.8;;;;;;;23.84;50.2207;1001.763;;;;
2019/07/24 01:38:52;;;;;;;6.2;3.6;;;;;;;23.81;50.27637;1001.726;;;;
2019/07/24 01:41:17;;;;;;;5.5;3.8;;;;;;;23.76;50.57715;1001.679;;;;
2019/07/24 01:43:42;;;;;;;5.3;3.8;;;;;;;23.72;50.69043;1001.657;;;;
2019/07/24 01:46:08;;;;;;;5.6;3.7;;;;;;;23.69;50.84082;1001.621;;;;
2019/07/24 01:48:33;;;;;;;5.6;3.6;;;;;;;23.63;50.95313;1001.635;;;;
2019/07/24 01:50:58;;;;;;;6.8;3.9;;;;;;;23.64;50.96484;1001.591;;;;
2019/07/24 01:53:23;;;;;;;4.8;3.8;;;;;;;23.67;50.7334;1001.659;;;;
2019/07/24 01:55:48;;;;;;;4.3;3.8;;;;;;;23.63;50.98828;1001.612;;;;
2019/07/24 01:58:13;;;;;;;4.9;4;;;;;;;23.54;51.28418;1001.671;;;;
2019/07/24 02:00:39;;;;;;;7.3;4.4;;;;;;;23.48;51.38281;1001.638;;;;
2019/07/24 02:03:03;;;;;;;5.2;3.5;;;;;;;23.49;51.27832;1001.658;;;;
2019/07/24 02:05:28;;;;;;;4.8;3.6;;;;;;;23.44;51.54199;1001.678;;;;
2019/07/24 02:07:54;;;;;;;4.8;3.8;;;;;;;23.47;51.45117;1001.667;;;;
2019/07/24 02:10:19;;;;;;;4.9;3.6;;;;;;;23.42;51.60059;1001.694;;;;
2019/07/24 02:12:44;;;;;;;4.4;3.4;;;;;;;23.37;51.73633;1001.645;;;;
2019/07/24 02:15:09;;;;;;;4.7;3.5;;;;;;;23.36;51.94629;1001.634;;;;
2019/07/24 02:17:35;;;;;;;6.5;4.2;;;;;;;23.34;52.13184;1001.625;;;;
2019/07/24 02:19:59;;;;;;;5.5;3.8;;;;;;;23.27;52.26465;1001.574;;;;
2019/07/24 02:22:25;;;;;;;5.1;3.7;;;;;;;23.24;52.19141;1001.642;;;;
2019/07/24 02:24:50;;;;;;;5.1;3.9;;;;;;;23.13;52.5791;1001.698;;;;
2019/07/24 02:27:15;;;;;;;4;3.6;;;;;;;23.11;52.36621;1001.663;;;;
2019/07/24 02:29:40;;;;;;;5.5;4.1;;;;;;;23.09;52.32813;1001.647;;;;
2019/07/24 02:32:26;;;;;;;6.1;3.7;;;;;;;23.08;52.71387;1001.645;;;;
2019/07/24 02:34:30;;;;;;;5.1;3.6;;;;;;;23;53.07031;1001.654;;;;
2019/07/24 02:36:55;;;;;;;5.1;3.7;;;;;;;22.94;53.37012;1001.655;;;;
2019/07/24 02:39:21;;;;;;;5.2;4.1;;;;;;;22.91;53.24707;1001.705;;;;
2019/07/24 02:41:46;;;;;;;4.8;3.8;;;;;;;22.92;54.5332;1001.72;;;;
2019/07/24 02:44:11;;;;;;;5.4;4.2;;;;;;;22.75;54.46582;1001.715;;;;
2019/07/24 02:46:36;;;;;;;5.5;3.8;;;;;;;22.64;55.69922;1001.714;;;;
2019/07/24 02:49:01;;;;;;;5.6;4;;;;;;;22.54;56.22656;1001.763;;;;
2019/07/24 02:51:26;;;;;;;5;3.9;;;;;;;22.51;56.1543;1001.745;;;;
2019/07/24 02:53:51;;;;;;;6.8;3.6;;;;;;;22.39;56.24414;1001.745;;;;
2019/07/24 02:56:17;;;;;;;5.4;4.1;;;;;;;22.4;55.59766;1001.755;;;;
2019/07/24 02:58:42;;;;;;;4.5;3.7;;;;;;;22.46;55.3584;1001.748;;;;
2019/07/24 03:01:07;;;;;;;5.3;4;;;;;;;22.49;55.11523;1001.713;;;;
2019/07/24 03:03:32;;;;;;;5.7;4;;;;;;;22.42;56.27148;1001.732;;;;
2019/07/24 03:05:57;;;;;;;6.5;3.6;;;;;;;22.28;56.50098;1001.722;;;;
2019/07/24 03:08:22;;;;;;;5;3.9;;;;;;;22.25;56.33203;1001.676;;;;
2019/07/24 03:10:47;;;;;;;5;4;;;;;;;22.19;56.41895;1001.661;;;;
2019/07/24 03:13:12;;;;;;;5.9;3.9;;;;;;;22.19;56.8877;1001.66;;;;
2019/07/24 03:15:38;;;;;;;6.5;3.8;;;;;;;22.09;57.88672;1001.752;;;;
2019/07/24 03:18:03;;;;;;;4.9;4.1;;;;;;;22.05;58.72754;1001.732;;;;
2019/07/24 03:20:28;;;;;;;6.5;3.7;;;;;;;21.92;57.55957;1001.781;;;;
2019/07/24 03:22:53;;;;;;;5.5;3.7;;;;;;;21.96;57.25879;1001.716;;;;
2019/07/24 03:25:18;;;;;;;5;3.9;;;;;;;21.97;57.17871;1001.72;;;;
2019/07/24 03:27:43;;;;;;;5;3.7;;;;;;;21.8;59.23438;1001.755;;;;
2019/07/24 03:30:08;;;;;;;5;3.7;;;;;;;21.65;59.54297;1001.753;;;;
2019/07/24 03:32:34;;;;;;;6.2;4.1;;;;;;;21.64;59.0498;1001.806;;;;
2019/07/24 03:34:59;;;;;;;7;4.1;;;;;;;21.57;59.84863;1001.734;;;;
2019/07/24 03:37:24;;;;;;;6;3.8;;;;;;;21.55;60.02344;1001.737;;;;
2019/07/24 03:39:49;;;;;;;4.8;3.9;;;;;;;21.5;59.05469;1001.698;;;;
2019/07/24 03:42:14;;;;;;;4.9;4.2;;;;;;;21.55;59.17871;1001.709;;;;
2019/07/24 03:44:39;;;;;;;5.8;3.8;;;;;;;21.71;59.92773;1001.729;;;;
2019/07/24 03:47:04;;;;;;;4.4;3.8;;;;;;;21.65;60.02539;1001.786;;;;
2019/07/24 03:49:29;;;;;;;4.5;3.8;;;;;;;21.51;60.73438;1001.723;;;;
2019/07/24 03:51:55;;;;;;;8.1;4.5;;;;;;;21.53;60.70215;1001.714;;;;
2019/07/24 03:54:20;;;;;;;8.6;4.7;;;;;;;21.46;61.25586;1001.697;;;;
2019/07/24 03:56:45;;;;;;;7;4.5;;;;;;;21.31;61.43359;1001.722;;;;
2019/07/24 03:59:10;;;;;;;4.9;3.9;;;;;;;21.19;60.99512;1001.729;;;;
2019/07/24 04:02:28;;;;;;;5.7;4.2;;;;;;;21.32;60.44922;1001.71;;;;
2019/07/24 04:04:54;;;;;;;7.9;4.1;;;;;;;21.4;59.67383;1001.732;;;;
2019/07/24 04:07:19;;;;;;;5.5;4.2;;;;;;;21.61;61.19434;1001.727;;;;
2019/07/24 04:09:44;;;;;;;7.5;4.2;;;;;;;21.46;59.50684;1001.713;;;;
2019/07/24 04:12:09;;;;;;;7.9;4;;;;;;;21.63;58.94238;1001.742;;;;
2019/07/24 04:14:34;;;;;;;6.5;4.2;;;;;;;21.72;59.16504;1001.698;;;;
2019/07/24 04:16:59;;;;;;;5.6;4.1;;;;;;;21.76;58.25586;1001.704;;;;
2019/07/24 04:19:24;;;;;;;7.9;4.7;;;;;;;21.86;59.17188;1001.678;;;;
2019/07/24 04:21:49;;;;;;;5.4;3.9;;;;;;;21.93;57.81738;1001.621;;;;
2019/07/24 04:24:15;;;;;;;6.8;4.5;;;;;;;22.05;57.39941;1001.621;;;;
2019/07/24 04:26:40;;;;;;;6.8;3.8;;;;;;;22.17;56.81641;1001.643;;;;
2019/07/24 04:29:05;;;;;;;6.1;3.6;;;;;;;22.23;56.75391;1001.633;;;;
2019/07/24 04:31:30;;;;;;;7.4;4.1;;;;;;;22.33;56.14258;1001.61;;;;
2019/07/24 04:33:55;;;;;;;6.4;4.2;;;;;;;22.44;56.87402;1001.662;;;;
2019/07/24 04:36:20;;;;;;;8.9;6.7;;;;;;;22.36;59.50977;1001.676;;;;
2019/07/24 04:38:45;;;;;;;6.2;4.6;;;;;;;22.23;60.79688;1001.729;;;;
2019/07/24 04:41:10;;;;;;;5.6;4.4;;;;;;;22.2;60.78125;1001.768;;;;
2019/07/24 04:43:36;;;;;;;7.7;4.6;;;;;;;22.13;61.21777;1001.83;;;;
2019/07/24 04:46:01;;;;;;;6.4;4;;;;;;;22.16;60.77637;1001.833;;;;
2019/07/24 04:48:26;;;;;;;4.9;3.9;;;;;;;22.26;60.74219;1001.829;;;;
2019/07/24 04:50:51;;;;;;;6.9;3.9;;;;;;;22.26;60.58887;1001.866;;;;
2019/07/24 04:53:16;;;;;;;8.1;4.2;;;;;;;22.45;60.48633;1001.858;;;;
2019/07/24 04:55:41;;;;;;;5.4;4.1;;;;;;;22.44;58.17871;1001.904;;;;
2019/07/24 04:58:06;;;;;;;6.2;4.6;;;;;;;22.73;60.61914;1001.916;;;;
2019/07/24 05:00:31;;;;;;;6.2;4.4;;;;;;;22.6;60.68359;1001.907;;;;
2019/07/24 05:02:56;;;;;;;8.3;4.4;;;;;;;22.69;59.65918;1001.885;;;;
2019/07/24 05:05:21;;;;;;;8;4.4;;;;;;;22.78;59.74219;1001.794;;;;
2019/07/24 05:07:47;;;;;;;7.4;4.4;;;;;;;23.02;59.83496;1001.857;;;;
2019/07/24 05:10:12;;;;;;;8.2;4.2;;;;;;;23.08;59.53613;1001.853;;;;
2019/07/24 05:12:37;;;;;;;8.3;4.3;;;;;;;23.15;59.36914;1001.873;;;;
2019/07/24 05:15:02;;;;;;;6.7;4.5;;;;;;;23.21;57.3252;1001.858;;;;
2019/07/24 05:17:28;;;;;;;8.5;4.8;;;;;;;23.17;59.55957;1001.86;;;;
2019/07/24 05:19:52;;;;;;;6.4;4.3;;;;;;;23.3;58.35156;1001.895;;;;
2019/07/24 05:22:17;;;;;;;6.7;4.5;;;;;;;23.47;57.22949;1001.894;;;;
2019/07/24 05:24:42;;;;;;;8.2;5.2;;;;;;;23.96;54.12988;1001.938;;;;
2019/07/24 05:27:07;;;;;;;12.6;5.3;;;;;;;23.92;54.63184;1001.989;;;;
2019/07/24 05:29:32;;;;;;;7.4;4.7;;;;;;;23.72;55.77441;1002.023;;;;
2019/07/24 05:31:58;;;;;;;9.2;4.9;;;;;;;23.9;55.26563;1002.051;;;;
2019/07/24 05:34:23;;;;;;;11;4.9;;;;;;;23.92;55.80078;1002.063;;;;
2019/07/24 05:36:48;;;;;;;8.2;5.2;;;;;;;23.82;56.1416;1002.084;;;;
2019/07/24 05:39:13;;;;;;;8.3;5.2;;;;;;;23.9;56.28125;1002.097;;;;
2019/07/24 05:41:38;;;;;;;12.4;5.7;;;;;;;24.06;55.78223;1002.124;;;;
2019/07/24 05:44:04;;;;;;;9.8;4.7;;;;;;;24.23;55.27148;1002.137;;;;
2019/07/24 05:46:29;;;;;;;7.5;4.7;;;;;;;24.48;54.53516;1002.111;;;;
2019/07/24 05:48:54;;;;;;;11.9;4.7;;;;;;;24.48;54.36914;1002.077;;;;
2019/07/24 05:51:19;;;;;;;7.7;4.5;;;;;;;24.39;54.53613;1002.094;;;;
2019/07/24 05:53:44;;;;;;;10.3;4.6;;;;;;;24.64;54.15234;1002.084;;;;
2019/07/24 05:56:09;;;;;;;8.6;4.6;;;;;;;24.73;53.5957;1002.111;;;;
2019/07/24 05:58:34;;;;;;;8.1;4.6;;;;;;;25.59;51.11621;1002.093;;;;
2019/07/24 06:00:59;;;;;;;6.2;4.4;;;;;;;25.64;51.02734;1002.14;;;;
2019/07/24 06:03:25;;;;;;;9.1;5.3;;;;;;;26.25;50.10059;1002.106;;;;
2019/07/24 06:05:50;;;;;;;14;6.9;;;;;;;26.51;49.15723;1002.069;;;;
2019/07/24 06:08:15;;;;;;;12.4;5.9;;;;;;;26.72;49.04883;1002.044;;;;
2019/07/24 06:10:40;;;;;;;11.3;5.6;;;;;;;27.65;46.42578;1002.025;;;;
2019/07/24 06:13:05;;;;;;;9.7;5.6;;;;;;;27.19;47.7207;1002.025;;;;
2019/07/24 06:15:30;;;;;;;12.8;5.5;;;;;;;27.36;47.16797;1002.018;;;;
2019/07/24 06:17:55;;;;;;;10.2;5.9;;;;;;;27.72;46.06348;1002.024;;;;
2019/07/24 06:20:20;;;;;;;8.3;5.7;;;;;;;28.18;44.7041;1002.097;;;;
2019/07/24 06:22:46;;;;;;;13.6;5.6;;;;;;;28.18;44.50195;1002.055;;;;
2019/07/24 06:25:11;;;;;;;8.8;5.3;;;;;;;27.8;44.8457;1002.073;;;;
2019/07/24 06:27:36;;;;;;;10.5;5.6;;;;;;;27.75;44.81641;1002.072;;;;
2019/07/24 06:30:01;;;;;;;11.3;5.3;;;;;;;27.84;44.75391;1002.085;;;;
2019/07/24 06:32:26;;;;;;;12.1;5.1;;;;;;;27.86;45.06641;1002.092;;;;
2019/07/24 06:34:51;;;;;;;9.7;5.2;;;;;;;27.86;44.54102;1002.115;;;;
2019/07/24 06:37:16;;;;;;;9.5;5.1;;;;;;;27.97;44.50488;1002.132;;;;
2019/07/24 06:39:41;;;;;;;11.9;5.2;;;;;;;28.04;43.95215;1002.117;;;;
2019/07/24 06:42:06;;;;;;;10;5.3;;;;;;;28.45;43.27637;1002.159;;;;
2019/07/24 06:44:32;;;;;;;10.3;5.2;;;;;;;28.62;42.67285;1002.162;;;;
2019/07/24 06:46:57;;;;;;;9.7;5.2;;;;;;;29.05;41.83105;1002.148;;;;
2019/07/24 06:49:22;;;;;;;11;5.5;;;;;;;28.83;41.6543;1002.166;;;;
2019/07/24 06:51:47;;;;;;;7.5;5;;;;;;;29.3;41.24512;1002.167;;;;
2019/07/24 06:54:12;;;;;;;6.5;5.1;;;;;;;30.28;39.13086;1002.218;;;;
2019/07/24 06:56:38;;;;;;;9.4;5.2;;;;;;;30.13;38.61621;1002.179;;;;
2019/07/24 06:59:03;;;;;;;8.4;5;;;;;;;30.94;37.64258;1002.184;;;;
2019/07/24 07:01:28;;;;;;;8.5;4.8;;;;;;;32.07;35.38086;1002.131;;;;
2019/07/24 07:03:53;;;;;;;11;4.8;;;;;;;34.22;31.14063;1002.15;;;;
2019/07/24 07:06:19;;;;;;;6.8;4.6;;;;;;;34.74;30.29395;1002.189;;;;
2019/07/24 07:08:43;;;;;;;10;4.7;;;;;;;34.2;30.8125;1002.168;;;;
2019/07/24 07:11:08;;;;;;;7.6;4.9;;;;;;;34.64;30.1543;1002.175;;;;
2019/07/24 07:13:34;;;;;;;11.3;4.8;;;;;;;36.22;27.83301;1002.155;;;;
2019/07/24 07:15:59;;;;;;;8.7;5;;;;;;;36.05;28.28418;1002.152;;;;
2019/07/24 07:18:24;;;;;;;6.7;5.2;;;;;;;36.86;26.99707;1002.143;;;;
2019/07/24 07:20:49;;;;;;;6.5;4.7;;;;;;;37.96;25.50391;1002.186;;;;
2019/07/24 07:23:14;;;;;;;6.8;4.6;;;;;;;38.68;24.56836;1002.208;;;;
2019/07/24 07:25:40;;;;;;;9.3;4.7;;;;;;;38.25;24.99512;1002.209;;;;
2019/07/24 07:28:05;;;;;;;10.5;4.9;;;;;;;39.13;23.9209;1002.199;;;;
2019/07/24 07:30:30;;;;;;;7.7;5;;;;;;;38.95;24.13184;1002.234;;;;
2019/07/24 07:32:55;;;;;;;7.4;4.9;;;;;;;40.36;22.44238;1002.289;;;;
2019/07/24 07:35:20;;;;;;;6.1;4.6;;;;;;;39.22;23.91309;1002.239;;;;
2019/07/24 07:37:45;;;;;;;9.5;5.2;;;;;;;38.47;24.42285;1002.209;;;;
2019/07/24 07:40:11;;;;;;;8.4;5.1;;;;;;;38.54;24.23145;1002.222;;;;
2019/07/24 07:42:36;;;;;;;11.4;4.9;;;;;;;41.26;20.99023;1002.254;;;;
2019/07/24 07:45:01;;;;;;;7.9;4.7;;;;;;;40.12;22.1377;1002.261;;;;
2019/07/24 07:47:26;;;;;;;7.3;4.8;;;;;;;41.55;20.48926;1002.22;;;;
2019/07/24 07:49:51;;;;;;;6.2;4.4;;;;;;;40.83;21.33887;1002.217;;;;
2019/07/24 07:52:17;;;;;;;7.9;4.7;;;;;;;42.22;19.79297;1002.199;;;;
2019/07/24 07:54:42;;;;;;;9.3;5.1;;;;;;;42.18;19.58301;1002.193;;;;
2019/07/24 07:57:08;;;;;;;6.9;4.9;;;;;;;40.53;21.67969;1002.223;;;;
2019/07/24 07:59:32;;;;;;;8.5;6;;;;;;;42.2;19.95215;1002.171;;;;
2019/07/24 08:01:57;;;;;;;10.8;5.9;;;;;;;42.82;19.1543;1002.286;;;;
2019/07/24 08:04:22;;;;;;;5.7;4.6;;;;;;;41.21;20.70605;1002.301;;;;
2019/07/24 08:06:47;;;;;;;6.7;4.7;;;;;;;41.51;19.94727;1002.256;;;;
2019/07/24 08:09:12;;;;;;;7.3;4.6;;;;;;;40.52;21.10449;1002.31;;;;
2019/07/24 08:11:37;;;;;;;7.8;4.5;;;;;;;41.24;20.05762;1002.302;;;;
2019/07/24 08:14:02;;;;;;;6.2;4.5;;;;;;;41.57;20.07227;1002.263;;;;
2019/07/24 08:16:28;;;;;;;5;4.5;;;;;;;40.57;21.14355;1002.329;;;;
2019/07/24 08:18:53;;;;;;;8.5;4.6;;;;;;;40.57;20.87402;1002.324;;;;
2019/07/24 08:21:18;;;;;;;7.1;4.2;;;;;;;40.04;21.69336;1002.35;;;;
2019/07/24 08:23:43;;;;;;;8.8;4.5;;;;;;;40.23;21.62891;1002.317;;;;
2019/07/24 08:26:08;;;;;;;10.5;4.6;;;;;;;39.99;21.95996;1002.353;;;;
2019/07/24 08:28:33;;;;;;;6.2;4.8;;;;;;;40.73;21.51758;1002.336;;;;
2019/07/24 08:30:58;;;;;;;8.4;4.7;;;;;;;41.03;20.88281;1002.328;;;;
2019/07/24 08:33:23;;;;;;;6.9;4.2;;;;;;;42.73;19.15137;1002.33;;;;
2019/07/24 08:35:48;;;;;;;6.8;4.5;;;;;;;40.85;21.37695;1002.305;;;;
2019/07/24 08:38:13;;;;;;;6.8;4.6;;;;;;;41.33;21.04297;1002.334;;;;
2019/07/24 08:40:38;;;;;;;6.9;4.4;;;;;;;40.14;22.30957;1002.336;;;;
2019/07/24 08:43:03;;;;;;;7.7;4.3;;;;;;;40.93;21.4541;1002.332;;;;
2019/07/24 08:45:29;;;;;;;9.2;4.6;;;;;;;42.42;19.82715;1002.365;;;;
2019/07/24 08:47:54;;;;;;;10.7;5.1;;;;;;;40.33;21.96484;1002.423;;;;
2019/07/24 08:50:19;;;;;;;8.3;4.8;;;;;;;41.3;21.16406;1002.383;;;;
2019/07/24 08:52:44;;;;;;;9;4.8;;;;;;;42.11;20.52539;1002.366;;;;
2019/07/24 08:55:09;;;;;;;8.5;5.5;;;;;;;42.18;20.2832;1002.389;;;;
2019/07/24 08:57:34;;;;;;;8.6;4.7;;;;;;;41.41;21.3291;1002.417;;;;
2019/07/24 09:00:00;;;;;;;9.5;5;;;;;;;42.4;20.45215;1002.365;;;;
2019/07/24 09:02:25;;;;;;;8.9;5;;;;;;;43.46;18.88574;1002.34;;;;
2019/07/24 09:04:50;;;;;;;7.8;5;;;;;;;42.92;19.7002;1002.382;;;;
2019/07/24 09:07:15;;;;;;;7.8;4.8;;;;;;;42.47;19.8291;1002.367;;;;
2019/07/24 09:09:40;;;;;;;8.5;5;;;;;;;42.57;20.0293;1002.323;;;;
2019/07/24 09:12:05;;;;;;;9.3;5;;;;;;;43.72;18.78516;1002.297;;;;
2019/07/24 09:14:30;;;;;;;8;5.1;;;;;;;43.46;19.32813;1002.296;;;;
2019/07/24 09:16:56;;;;;;;6.6;5.2;;;;;;;41.97;20.81445;1002.279;;;;
2019/07/24 09:19:21;;;;;;;8;5.2;;;;;;;42.39;20.0957;1002.299;;;;
2019/07/24 09:21:46;;;;;;;8.9;4.7;;;;;;;42.11;20.42773;1002.214;;;;
2019/07/24 09:24:11;;;;;;;6.4;4.9;;;;;;;42.04;20.32617;1002.217;;;;
2019/07/24 09:26:36;;;;;;;7.7;5.1;;;;;;;42.71;20.02344;1002.295;;;;
2019/07/24 09:29:01;;;;;;;8.5;5.1;;;;;;;42.04;20.30176;1002.278;;;;
2019/07/24 09:31:26;;;;;;;9.6;5.3;;;;;;;41.84;20.67383;1002.363;;;;
2019/07/24 09:33:51;;;;;;;7;5.1;;;;;;;41.48;21.03711;1002.343;;;;
2019/07/24 09:36:16;;;;;;;6.2;5.2;;;;;;;40.68;21.71191;1002.369;;;;
2019/07/24 09:38:42;;;;;;;6.9;5.2;;;;;;;42.15;20.37988;1002.339;;;;
2019/07/24 09:41:07;;;;;;;10.6;5.4;;;;;;;41.56;20.80762;1002.276;;;;
2019/07/24 09:43:32;;;;;;;7.6;5;;;;;;;44.02;17.95801;1002.288;;;;
2019/07/24 09:45:57;;;;;;;7.7;5.1;;;;;;;43.88;18.03906;1002.251;;;;
2019/07/24 09:48:22;;;;;;;6.8;4.7;;;;;;;43.06;18.99219;1002.236;;;;
2019/07/24 09:50:47;;;;;;;5.4;4.9;;;;;;;43.23;18.50684;1002.277;;;;
2019/07/24 09:53:12;;;;;;;6;5;;;;;;;41.32;20.39258;1002.221;;;;
2019/07/24 09:55:37;;;;;;;6.5;4.8;;;;;;;40.52;21.21484;1002.252;;;;
2019/07/24 09:58:02;;;;;;;6.8;4.5;;;;;;;41.69;19.84473;1002.242;;;;
2019/07/24 10:00:27;;;;;;;7.3;4.9;;;;;;;41.66;20.01465;1002.246;;;;
2019/07/24 10:02:53;;;;;;;6.3;4.5;;;;;;;41.6;19.90137;1002.232;;;;
2019/07/24 10:05:18;;;;;;;5.8;4.3;;;;;;;41.45;20.43555;1002.218;;;;
2019/07/24 10:07:43;;;;;;;7.7;4.5;;;;;;;41.34;20.50391;1002.205;;;;
2019/07/24 10:10:08;;;;;;;5.6;4.6;;;;;;;41.17;20.32422;1002.247;;;;
2019/07/24 10:12:33;;;;;;;7;4.4;;;;;;;41.58;20.1582;1002.191;;;;
2019/07/24 10:14:59;;;;;;;4.9;4.4;;;;;;;42.6;19.04785;1002.252;;;;
2019/07/24 10:17:24;;;;;;;6.4;4.3;;;;;;;42.18;19.49707;1002.217;;;;
2019/07/24 10:19:49;;;;;;;5.2;4.3;;;;;;;42.62;19.06055;1002.21;;;;
2019/07/24 10:22:14;;;;;;;5.5;4.2;;;;;;;42.56;18.5293;1002.2;;;;
2019/07/24 10:24:39;;;;;;;7.2;4.5;;;;;;;41.25;19.78906;1002.08;;;;
2019/07/24 10:27:05;;;;;;;5.6;4.5;;;;;;;40.83;20.5791;1002.185;;;;
2019/07/24 10:29:31;;;;;;;7;4.3;;;;;;;41.11;20.46973;1002.101;;;;
2019/07/24 10:31:55;;;;;;;5.7;4.5;;;;;;;41.42;19.75879;1002.058;;;;
2019/07/24 10:34:20;;;;;;;6;4;;;;;;;40.58;19.93164;1002.07;;;;
2019/07/24 10:36:45;;;;;;;6.8;4.3;;;;;;;40.54;19.61133;1002.094;;;;
2019/07/24 10:39:10;;;;;;;6.2;4.6;;;;;;;41.27;18.4043;1002.006;;;;
2019/07/24 10:41:36;;;;;;;5.7;4.2;;;;;;;40.97;18.90625;1002.054;;;;
2019/07/24 10:44:01;;;;;;;4.2;3.8;;;;;;;39.81;19.91016;1002.042;;;;
2019/07/24 10:46:26;;;;;;;4.6;3.8;;;;;;;38.87;20.85742;1001.999;;;;
2019/07/24 10:48:51;;;;;;;5.5;4.2;;;;;;;37.66;22.10449;1002.002;;;;
2019/07/24 10:51:17;;;;;;;6.2;4.5;;;;;;;37.84;22.79492;1002.027;;;;
2019/07/24 10:53:42;;;;;;;10;4.8;;;;;;;37.58;23.43848;1002.015;;;;
2019/07/24 10:56:07;;;;;;;7.5;4.7;;;;;;;37.71;23.46973;1002.016;;;;
2019/07/24 10:58:32;;;;;;;6.2;4.2;;;;;;;37.79;23.4375;1001.966;;;;
2019/07/24 11:00:57;;;;;;;7.9;4.3;;;;;;;37.91;22.9082;1002.059;;;;
2019/07/24 11:03:22;;;;;;;5.5;4.6;;;;;;;37.74;22.87598;1001.993;;;;
2019/07/24 11:05:47;;;;;;;5.7;4.3;;;;;;;37.29;23.87402;1001.989;;;;
2019/07/24 11:08:12;;;;;;;6;4.5;;;;;;;37.17;23.97754;1001.946;;;;
2019/07/24 11:10:38;;;;;;;5.3;4.4;;;;;;;37.55;23.79004;1001.974;;;;
2019/07/24 11:13:03;;;;;;;6.1;4.7;;;;;;;37.39;23.53906;1001.967;;;;
2019/07/24 11:15:28;;;;;;;6.8;4.7;;;;;;;37.53;23.84961;1001.929;;;;
2019/07/24 11:17:53;;;;;;;6.7;4.4;;;;;;;37.08;24.08203;1001.883;;;;
2019/07/24 11:20:18;;;;;;;6.3;4.7;;;;;;;37.38;23.78125;1001.885;;;;
2019/07/24 11:22:43;;;;;;;5.1;4.6;;;;;;;37.02;24.23633;1001.844;;;;
2019/07/24 11:25:08;;;;;;;8.9;4.6;;;;;;;36.97;24.62305;1001.861;;;;
2019/07/24 11:27:34;;;;;;;5.5;4.2;;;;;;;37.03;24.00684;1001.838;;;;
2019/07/24 11:29:59;;;;;;;7;4.7;;;;;;;37.2;23.2373;1001.795;;;;
2019/07/24 11:32:24;;;;;;;7.3;4.5;;;;;;;37.23;23.5791;1001.773;;;;
2019/07/24 11:34:49;;;;;;;5.5;4.2;;;;;;;37.2;24.18555;1001.776;;;;
2019/07/24 11:37:14;;;;;;;5.6;4.4;;;;;;;37.8;23.38965;1001.724;;;;
2019/07/24 11:39:39;;;;;;;6.4;4.6;;;;;;;38.16;23.43262;1001.66;;;;
2019/07/24 11:42:04;;;;;;;8.1;4.7;;;;;;;37.93;23.51855;1001.661;;;;
2019/07/24 11:44:29;;;;;;;8.9;5.8;;;;;;;38.49;23.10742;1001.64;;;;
2019/07/24 11:46:54;;;;;;;6.9;4.7;;;;;;;37.65;23.96582;1001.657;;;;
2019/07/24 11:49:20;;;;;;;5.4;4.5;;;;;;;37.46;24.0166;1001.638;;;;
2019/07/24 11:51:45;;;;;;;7.5;5.1;;;;;;;37.76;24.01953;1001.648;;;;
2019/07/24 11:54:10;;;;;;;6.7;5.2;;;;;;;38.07;23.96289;1001.602;;;;
2019/07/24 11:56:35;;;;;;;7.1;5.2;;;;;;;38;23.64355;1001.584;;;;
2019/07/24 11:59:00;;;;;;;7.7;4.8;;;;;;;37.7;24.27246;1001.564;;;;
2019/07/24 12:01:26;;;;;;;6.2;4.6;;;;;;;37.97;23.92188;1001.558;;;;
2019/07/24 12:03:51;;;;;;;6.4;5.2;;;;;;;38.51;22.76758;1001.54;;;;
2019/07/24 12:06:16;;;;;;;7.9;5;;;;;;;38.2;23.37402;1001.513;;;;
2019/07/24 12:08:41;;;;;;;6.2;4.7;;;;;;;37.7;24.11426;1001.559;;;;
2019/07/24 12:11:06;;;;;;;9.5;5.2;;;;;;;37.92;24.04102;1001.475;;;;
2019/07/24 12:13:31;;;;;;;6.4;4.4;;;;;;;37.67;23.46777;1001.486;;;;
2019/07/24 12:15:56;;;;;;;8.3;4.8;;;;;;;37.54;23.57129;1001.463;;;;
2019/07/24 12:18:21;;;;;;;8.2;4.9;;;;;;;38.06;23.08594;1001.434;;;;
2019/07/24 12:20:47;;;;;;;7.2;5.1;;;;;;;37.79;23.6084;1001.388;;;;
2019/07/24 12:23:12;;;;;;;6;4.9;;;;;;;38.01;23.33984;1001.366;;;;
2019/07/24 12:25:37;;;;;;;6.2;5.2;;;;;;;38.23;23.5332;1001.342;;;;
2019/07/24 12:28:02;;;;;;;5.9;5;;;;;;;37.9;22.83496;1001.34;;;;
2019/07/24 12:30:27;;;;;;;6.6;5;;;;;;;37.88;23.1748;1001.338;;;;
2019/07/24 12:32:52;;;;;;;5.7;4.5;;;;;;;38.08;23.31836;1001.34;;;;
2019/07/24 12:35:17;;;;;;;5.8;4.8;;;;;;;37.96;21.65723;1001.276;;;;
2019/07/24 12:37:42;;;;;;;6.4;4.5;;;;;;;38.05;22.08691;1001.295;;;;
2019/07/24 12:40:07;;;;;;;6;4.5;;;;;;;37.71;22.44727;1001.256;;;;
2019/07/24 12:42:33;;;;;;;6.3;4.5;;;;;;;37.84;22.84375;1001.232;;;;
2019/07/24 12:44:58;;;;;;;5.7;4.8;;;;;;;37.98;20.29492;1001.242;;;;
2019/07/24 12:47:23;;;;;;;4.8;4.2;;;;;;;37.7;19.44238;1001.206;;;;
2019/07/24 12:49:48;;;;;;;5.5;4.2;;;;;;;37.37;20.19434;1001.183;;;;
2019/07/24 12:52:13;;;;;;;5;4.1;;;;;;;37.62;19.88867;1001.133;;;;
2019/07/24 12:54:38;;;;;;;5.4;4.5;;;;;;;37.72;21.03711;1001.168;;;;
2019/07/24 12:57:03;;;;;;;5.2;4.2;;;;;;;37.77;20.10254;1001.187;;;;
2019/07/24 12:59:28;;;;;;;4.8;3.8;;;;;;;37.71;19.08984;1001.141;;;;
2019/07/24 13:01:54;;;;;;;5.9;4.3;;;;;;;37.6;19.23145;1001.083;;;;
2019/07/24 13:04:19;;;;;;;5.1;4.6;;;;;;;37.73;19.66211;1001.097;;;;
2019/07/24 13:06:44;;;;;;;7.9;4.2;;;;;;;37.76;18.26465;1001.045;;;;
2019/07/24 13:09:09;;;;;;;4.4;3.9;;;;;;;37.82;18.41309;1000.982;;;;
2019/07/24 13:11:34;;;;;;;6.9;4;;;;;;;37.88;17.69727;1000.965;;;;
2019/07/24 13:13:59;;;;;;;4.7;3.9;;;;;;;37.81;17.85254;1000.976;;;;
2019/07/24 13:16:25;;;;;;;5.2;4.1;;;;;;;37.58;19.40039;1000.97;;;;
2019/07/24 13:18:50;;;;;;;4.7;4;;;;;;;37.58;17.11328;1000.987;;;;
2019/07/24 13:21:15;;;;;;;5.2;4.1;;;;;;;37.43;17.50977;1000.909;;;;
2019/07/24 13:23:40;;;;;;;5.1;4.5;;;;;;;37.39;18.6875;1000.889;;;;
2019/07/24 13:26:05;;;;;;;5.9;4.3;;;;;;;37.36;19.03906;1000.786;;;;
2019/07/24 13:28:30;;;;;;;6.6;4.4;;;;;;;37.43;18.33691;1000.814;;;;
2019/07/24 13:30:55;;;;;;;5.6;4.4;;;;;;;37.35;18.52734;1000.837;;;;
2019/07/24 13:33:23;;;;;;;5.6;4.4;;;;;;;37.1;18.94336;1000.807;;;;
2019/07/24 13:35:46;;;;;;;5.2;4.2;;;;;;;37.26;19.35156;1000.831;;;;
2019/07/24 13:38:11;;;;;;;7.2;4.5;;;;;;;37.38;20.09766;1000.796;;;;
2019/07/24 13:40:36;;;;;;;4.4;4;;;;;;;37.62;20.49805;1000.768;;;;
2019/07/24 13:43:01;;;;;;;7.9;4.7;;;;;;;37.67;20.98633;1000.8;;;;
2019/07/24 13:45:26;;;;;;;5.2;4.7;;;;;;;37.77;20.9541;1000.795;;;;
2019/07/24 13:47:51;;;;;;;8;4.3;;;;;;;37.7;20.81738;1000.782;;;;
2019/07/24 13:50:16;;;;;;;6.6;4.8;;;;;;;37.87;20.13086;1000.772;;;;
2019/07/24 13:52:41;;;;;;;5.9;4.4;;;;;;;37.99;19.51563;1000.793;;;;
2019/07/24 13:55:07;;;;;;;9.7;4.6;;;;;;;37.93;20.63281;1000.763;;;;
2019/07/24 13:57:32;;;;;;;5.6;4.7;;;;;;;37.92;20.85156;1000.733;;;;
2019/07/24 13:59:57;;;;;;;5.2;4.5;;;;;;;38.13;20.4834;1000.706;;;;
2019/07/24 14:02:22;;;;;;;5.1;4.5;;;;;;;38.04;20.90625;1000.667;;;;
2019/07/24 14:04:47;;;;;;;5.9;4.5;;;;;;;37.87;20.9834;1000.691;;;;
2019/07/24 14:07:12;;;;;;;7.5;4.6;;;;;;;37.98;21.07422;1000.685;;;;
2019/07/24 14:09:37;;;;;;;9.5;4.8;;;;;;;37.92;20.34082;1000.74;;;;
2019/07/24 14:12:02;;;;;;;5.5;4.5;;;;;;;37.93;20.23145;1000.719;;;;
2019/07/24 14:14:27;;;;;;;6.1;4.4;;;;;;;37.59;20.52051;1000.68;;;;